Weather observations for the past three days for
Olive Branch, Olive Branch Airport
Metric (Imperial)
Date Time (cdt) Wind (kph) Vis. (km) Weather Sky Cond. Temperature (ºC) Relative Humidity Wind Chill (°C) Heat Index (°C) Pressure Precipitation (cm)
Air Dwpt 6 hour altimeter (cm) sea level (mb) 1 hr 3 hr 6 hr
Max. Min.
02 11:50 W 20 16.09 A Few Clouds FEW050 20 1 28% 76.4 0.0
02 10:50 NW 19 G 26 16.09 Fair CLR 19 1 30% 76.43 0.0
02 09:50 NW 9 16.09 Fair CLR 18 1 32% 76.4 0.0
02 08:50 E 6 16.09 Fair CLR 15 4 48% 76.4 0.0
02 07:50 N 6 16.09 Fair CLR 12 5 63% 76.35 0.0
02 06:50 Calm 16.09 Fair CLR 10 5 71% 76.3 0.0
02 06:35 Calm 16.09 Fair CLR 8 5 82% 76.3 0.0
02 06:15 Calm 16.09 Fair CLR 7 5 87% 76.3 0.0
02 05:55 Calm 16.09 Fair CLR 8 5 82% 76.28 0.0
02 05:35 Calm 16.09 Fair CLR 8 5 82% 76.25 0.0
02 05:15 Calm 16.09 Fair CLR 7 5 87% 76.25 0.0
02 04:55 Calm 16.09 Fair CLR 7 5 87% 76.25 0.0
02 04:35 Calm 16.09 Fair CLR 8 4 76% 76.25 0.0
02 04:15 Calm 16.09 Fair CLR 8 4 76% 76.25 0.0
02 03:55 Calm 16.09 Fair CLR 9 3 66% 76.23 0.0
02 03:35 Calm 16.09 Fair CLR 10 3 62% 76.23 0.0
02 03:15 NE 6 16.09 Fair CLR 9 4 71% 76.23 0.0
02 02:55 Calm 16.09 Fair CLR 10 4 67% 76.25 0.0
02 02:35 Calm 16.09 Fair CLR 11 2 54% 76.25 0.0
02 02:15 E 6 16.09 Fair CLR 12 1 47% 76.25 0.0
02 01:55 NE 7 16.09 Fair CLR 13 1 44% 76.25 0.0
02 01:35 Vrbl 7 16.09 Fair CLR 13 1 44% 76.28 0.0
02 01:15 NE 11 16.09 Fair CLR 13 1 44% 76.28 0.0
02 00:55 NE 11 16.09 Fair CLR 13 1 44% 76.3 0.0
02 00:35 NE 9 16.09 Fair CLR 13 1 44% 76.28 0.0
02 00:15 NE 9 16.09 Fair CLR 14 1 41% 76.25 0.0
01 23:55 NE 6 16.09 Fair CLR 13 1 44% 76.25 0.0
01 23:35 NE 7 16.09 Fair CLR 14 0 39% 76.25 0.0
01 23:15 NE 7 16.09 Fair CLR 14 0 39% 76.25 0.0
01 22:55 NE 7 16.09 Fair CLR 14 1 41% 76.23 0.0
01 22:35 NE 13 16.09 Fair CLR 14 1 41% 76.23 0.0
01 22:15 N 13 16.09 Fair CLR 14 1 41% 76.2 0.0
01 21:55 N 11 16.09 Fair CLR 13 2 47% 76.23 0.0
01 21:35 N 9 16.09 Fair CLR 14 2 44% 76.25 0.0
01 21:15 N 9 16.09 Fair CLR 13 3 51% 76.28 0.0
01 19:50 NE 9 16.09 Fair CLR 16 2 39% 76.17 0.0
01 18:50 NE 15 16.09 Fair CLR 17 2 37% 76.15 0.0
01 17:50 NE 15 16.09 Fair CLR 18 1 32% 76.1 0.0
01 16:50 NE 15 16.09 Fair CLR 18 3 37% 76.07 0.0
01 15:50 NE 15 16.09 Fair CLR 19 5 40% 76.1 0.0
01 14:50 N 9 16.09 Fair CLR 18 5 43% 76.17 0.0
01 13:50 N 11 G 22 16.09 Fair CLR 18 5 43% 76.25 0.0
01 12:50 NE 15 16.09 Fair CLR 18 5 43% 76.28 0.0
01 11:50 N 19 16.09 Fair CLR 17 5 45% 76.28 0.0
01 09:50 NE 13 16.09 Fair CLR 17 8 56% 76.28 0.0
01 08:50 N 13 16.09 Fair CLR 15 8 63% 76.28 0.0
01 07:50 N 13 16.09 Fair CLR 13 8 72% 76.25 0.0
01 06:50 N 9 16.09 Fair CLR 11 9 88% 76.23 0.0
01 06:35 N 7 16.09 Fair CLR 11 8 82% 76.2 0.0
01 06:15 Calm 16.09 Fair CLR 11 7 77% 76.2 0.0
01 05:55 Calm 16.09 Fair CLR 11 7 77% 76.2 0.0
01 05:35 Calm 16.09 Fair CLR 11 7 77% 76.17 0.0
01 05:15 Calm 16.09 Fair CLR 10 8 88% 76.17 0.0
01 04:55 N 6 16.09 Fair CLR 10 8 88% 76.15 0.0
01 04:35 N 7 16.09 Fair CLR 9 9 100% 8 76.15 0.0
01 04:15 Calm 16.09 Fair CLR 10 8 88% 76.15 0.0
01 03:55 Calm 16.09 Fair CLR 11 7 77% 76.15 0.0
01 03:35 Calm 16.09 Fair CLR 10 8 88% 76.15 0.0
01 03:15 N 6 16.09 Fair CLR 10 8 88% 76.15 0.0
01 02:55 Calm 16.09 Fair CLR 10 8 88% 76.15 0.0
01 02:35 Calm 16.09 Fair CLR 11 7 77% 76.15 0.0
01 02:15 Calm 16.09 Fair CLR 11 7 77% 76.15 0.0
01 01:55 Calm 16.09 Fair CLR 12 7 72% 76.15 0.0
01 01:35 N 6 16.09 Fair CLR 11 7 77% 76.17 0.0
01 01:15 N 6 16.09 Fair CLR 11 7 77% 76.17 0.0
01 00:55 N 6 16.09 Fair CLR 11 7 77% 76.17 0.0
01 00:35 N 6 16.09 Fair CLR 11 7 77% 76.17 0.0
01 00:15 NE 6 16.09 Fair CLR 11 6 72% 76.17 0.0
30 23:55 Calm 16.09 Fair CLR 12 6 67% 76.17 0.0
30 23:35 Calm 16.09 Fair CLR 12 6 67% 76.17 0.0
30 23:15 NE 6 16.09 Fair CLR 12 6 67% 76.2 0.0
30 22:55 NE 7 16.09 Fair CLR 12 6 67% 76.17 0.0
30 22:35 N 6 16.09 Fair CLR 13 6 63% 76.2 0.0
30 22:15 NE 6 16.09 Fair CLR 12 7 72% 76.2 0.0
30 21:55 N 6 16.09 Fair CLR 13 6 63% 76.2 0.0
30 21:35 NE 6 16.09 Fair CLR 13 6 63% 76.17 0.0
30 21:15 Calm 16.09 Fair CLR 14 6 59% 76.17 0.0
30 19:50 N 6 16.09 Fair CLR 14 5 55% 76.15 0.0
30 18:50 N 13 16.09 Fair CLR 16 4 45% 76.1 0.0
30 17:50 N 13 16.09 Fair CLR 17 4 42% 76.1 0.0
30 16:50 NE 17 G 26 16.09 Fair CLR 18 3 37% 76.07 0.0
30 15:50 NE 15 G 26 16.09 Fair CLR 19 4 37% 76.12 0.0
30 14:50 N 22 16.09 Fair CLR 19 4 37% 76.17 0.0
30 13:50 NE 13 G 24 16.09 Fair CLR 19 3 35% 76.2 0.0
30 12:50 N 15 16.09 Fair CLR 18 4 40% 76.3 0.0
30 11:50 NE 22 16.09 Fair CLR 18 4 40% 76.28 0.0
30 10:50 NE 24 16.09 Fair CLR 17 4 42% 76.3 0.0
30 09:50 E 13 G 28 16.09 Fair CLR 16 4 45% 76.28 0.0
30 08:50 NE 20 16.09 Fair CLR 14 5 55% 76.25 0.0
30 07:50 NE 22 16.09 Fair CLR 13 6 63% 76.25 0.0
30 06:50 N 13 16.09 Fair CLR 12 7 72% 76.25 0.0
30 06:35 NE 15 16.09 Fair CLR 12 7 72% 76.25 0.0
30 06:15 NE 15 16.09 Fair CLR 12 7 72% 76.2 0.0
30 05:55 NE 13 16.09 Fair CLR 12 7 72% 76.23 0.0
30 05:35 NE 13 16.09 Fair CLR 12 7 72% 76.2 0.0
30 05:15 NE 13 16.09 Fair CLR 13 7 67% 76.2 0.0
30 04:55 NE 13 16.09 Fair CLR 13 8 72% 76.17 0.0
30 04:35 N 15 G 28 16.09 Fair CLR 13 8 72% 76.17 0.0
30 04:15 N 19 16.09 A Few Clouds FEW044 13 8 72% 76.15 0.0
30 03:55 N 17 16.09 A Few Clouds FEW043 13 8 72% 76.15 0.0
30 03:35 N 17 16.09 Fair CLR 14 8 67% 76.12 0.0
30 03:15 NE 15 16.09 A Few Clouds FEW110 14 8 67% 76.1 0.0
30 02:55 NE 15 16.09 Mostly Cloudy BKN110 14 8 67% 76.07 0.0
30 02:35 NE 11 G 20 16.09 Mostly Cloudy BKN110 15 8 63% 76.07 0.0
30 02:15 NE 13 16.09 Partly Cloudy FEW039 SCT110 15 9 68% 76.1 0.0
30 01:55 NE 15 16.09 Mostly Cloudy BKN040 15 9 68% 76.1 0.0
30 01:35 N 19 16.09 Mostly Cloudy BKN040 15 9 68% 76.12 0.0
30 01:15 N 15 G 26 16.09 Partly Cloudy SCT038 SCT120 15 9 68% 76.1 0.0
30 00:55 NE 15 16.09 Partly Cloudy FEW038 SCT120 16 9 63% 76.1 0.0
30 00:35 NE 11 G 22 16.09 Partly Cloudy FEW038 SCT110 16 9 63% 76.12 0.0
30 00:15 N 17 16.09 Mostly Cloudy BKN110 16 9 63% 76.15 0.0
29 23:55 NE 15 G 24 16.09 Mostly Cloudy BKN110 16 9 63% 76.12 0.0
29 23:35 N 19 16.09 A Few Clouds FEW110 16 10 68% 76.12 0.0
29 23:15 N 15 16.09 Mostly Cloudy FEW048 SCT075 BKN120 17 10 64% 76.1 0.0
29 22:55 NE 17 G 26 16.09 Mostly Cloudy FEW028 SCT050 BKN070 17 11 68% 76.07 0.0
29 22:35 N 19 16.09 Overcast OVC100 17 11 68% 76.1 0.0
29 22:15 N 17 G 31 16.09 Overcast OVC095 17 12 73% 76.07 0.0
29 21:55 NE 19 16.09 Mostly Cloudy FEW030 FEW037 BKN095 17 13 77% 76.07 0.0
29 21:35 N 7 16.09 Overcast SCT030 BKN060 OVC095 18 14 78% 76.1 0.0
29 21:15 NE 6 16.09 Overcast SCT040 BKN049 OVC095 18 14 78% 76.1 0.0
29 19:50 N 6 16.09 Partly Cloudy SCT040 SCT090 SCT120 18 14 78% 76 0.0
29 18:50 NE 7 16.09 Mostly Cloudy SCT040 BKN090 BKN120 18 14 78% 76 0.0
29 17:50 N 19 16.09 Mostly Cloudy BKN029 18 13 73% 75.92 0.0
29 16:50 N 19 16.09 Overcast OVC028 19 14 73% 75.97 0.0
29 15:50 N 15 16.09 Overcast OVC025 19 14 73% 76.02 0.0
29 14:50 N 17 G 28 16.09 Overcast BKN026 OVC031 20 14 69% 76.05 0.0
29 13:50 N 19 G 28 16.09 Overcast BKN019 BKN024 OVC029 20 15 73% 76.1 0.0
29 12:50 NW 15 16.09 Overcast SCT014 BKN018 OVC034 19 16 83% 76.17 0.0
Date Time (cdt) Wind (kph) Vis. (km) Weather Sky Cond. Air Dwpt Max. Min. Relative Humidity Wind Chill (°C) Heat Index (°C) altimeter (cm) sea level (mb) 1 hr 3 hr 6 hr
6 hour
Temperature (ºC) Pressure Precipitation (cm)